createdAt,value
2018-05-21T00:01:44.837Z,101897.34
2018-05-21T00:04:12.980Z,101892.77
2018-05-21T00:06:41.064Z,101886.04
2018-05-21T00:09:09.177Z,101881.78
2018-05-21T00:11:37.300Z,101886.98
2018-05-21T00:14:05.812Z,101880.61
2018-05-21T00:16:34.190Z,101882.11
2018-05-21T00:19:02.306Z,101882.72
2018-05-21T00:21:30.408Z,101884.02
2018-05-21T00:23:58.504Z,101884.63
2018-05-21T00:26:26.636Z,101887.92
2018-05-21T00:28:54.732Z,101886.47
2018-05-21T00:31:23.128Z,101883.15
2018-05-21T00:33:51.253Z,101883.56
2018-05-21T00:36:19.341Z,101881.44
2018-05-21T00:38:47.745Z,101877.33
2018-05-21T00:41:15.836Z,101868.58
2018-05-21T00:43:43.942Z,101867.41
2018-05-21T00:46:12.048Z,101873.52
2018-05-21T00:48:40.159Z,101871.42
2018-05-21T00:51:08.741Z,101863.84
2018-05-21T00:53:37.349Z,101857.44
2018-05-21T00:56:05.480Z,101855.06
2018-05-21T00:58:33.601Z,101851.86
2018-05-21T01:01:01.702Z,101850.33
2018-05-21T01:03:29.825Z,101845.00
2018-05-21T01:05:57.930Z,101846.41
2018-05-21T01:08:26.041Z,101845.06
2018-05-21T01:10:54.137Z,101847.15
2018-05-21T01:13:22.265Z,101843.07
2018-05-21T01:18:24.598Z,101845.89
2018-05-21T01:20:52.718Z,101842.75
2018-05-21T01:23:20.816Z,101847.08
2018-05-21T01:25:48.944Z,101848.13
2018-05-21T01:28:22.028Z,101844.50
2018-05-21T01:30:50.133Z,101848.59
2018-05-21T01:33:18.238Z,101844.16
2018-05-21T01:35:46.367Z,101841.55
2018-05-21T01:38:14.450Z,101844.83
2018-05-21T01:40:42.910Z,101840.94
2018-05-21T01:43:11.060Z,101837.77
2018-05-21T01:45:39.174Z,101839.26
2018-05-21T01:48:08.116Z,101842.10
2018-05-21T01:50:36.256Z,101836.79
2018-05-21T01:53:04.397Z,101832.78
2018-05-21T01:55:32.485Z,101838.84
2018-05-21T01:58:00.620Z,101834.52
2018-05-21T02:00:29.734Z,101831.09
2018-05-21T02:02:57.922Z,101830.03
2018-05-21T02:05:26.008Z,101833.83
2018-05-21T02:07:55.941Z,101829.31
2018-05-21T02:10:24.344Z,101825.25
2018-05-21T02:12:52.449Z,101825.38
2018-05-21T02:15:20.607Z,101817.37
2018-05-21T02:17:48.702Z,101818.02
2018-05-21T02:20:16.830Z,101820.48
2018-05-21T02:22:44.980Z,101819.47
2018-05-21T02:25:13.083Z,101820.67
2018-05-21T02:27:41.864Z,101817.55
2018-05-21T02:30:10.474Z,101820.34
2018-05-21T02:32:39.147Z,101820.00
2018-05-21T02:35:07.249Z,101812.30
2018-05-21T02:37:35.360Z,101817.15
2018-05-21T02:40:03.451Z,101810.19
2018-05-21T02:42:36.989Z,101812.85
2018-05-21T02:45:05.077Z,101804.87
2018-05-21T02:47:33.184Z,101806.28
2018-05-21T02:50:01.292Z,101810.34
2018-05-21T02:52:29.376Z,101806.47
2018-05-21T02:54:57.817Z,101804.68
2018-05-21T02:57:25.936Z,101803.88
2018-05-21T02:59:54.053Z,101801.98
2018-05-21T03:02:22.148Z,101810.91
2018-05-21T03:04:50.364Z,101801.41
2018-05-21T03:07:18.375Z,101804.14
2018-05-21T03:09:46.489Z,101807.05
2018-05-21T03:12:14.580Z,101805.78
2018-05-21T03:24:27.680Z,101795.28
2018-05-21T03:26:56.086Z,101794.16
2018-05-21T03:29:24.173Z,101796.03
2018-05-21T03:31:52.288Z,101793.77
2018-05-21T03:34:21.097Z,101792.81
2018-05-21T03:36:49.203Z,101796.41
2018-05-21T03:39:17.318Z,101792.09
2018-05-21T03:41:45.409Z,101789.45
2018-05-21T03:44:13.497Z,101788.88
2018-05-21T03:46:41.606Z,101783.12
2018-05-21T03:49:09.697Z,101790.77
2018-05-21T03:51:37.796Z,101785.71
2018-05-21T03:54:05.893Z,101788.01
2018-05-21T03:56:33.994Z,101779.66
2018-05-21T03:59:13.822Z,101786.27
2018-05-21T04:01:53.652Z,101784.40
2018-05-21T04:04:21.770Z,101781.88
2018-05-21T04:06:49.853Z,101784.02
2018-05-21T04:09:17.945Z,101783.59
2018-05-21T04:11:46.081Z,101788.57
2018-05-21T04:14:14.173Z,101781.84
2018-05-21T04:16:42.267Z,101783.16
2018-05-21T04:19:10.357Z,101778.42
2018-05-21T04:21:44.034Z,101778.87
2018-05-21T04:24:12.140Z,101777.56
2018-05-21T04:39:40.449Z,101769.02
2018-05-21T04:42:08.647Z,101770.72
2018-05-21T04:44:36.729Z,101774.41
2018-05-21T04:47:04.817Z,101766.55
2018-05-21T04:49:32.905Z,101767.30
2018-05-21T04:52:01.009Z,101764.05
2018-05-21T04:54:29.097Z,101766.19
2018-05-21T04:56:57.793Z,101762.58
2018-05-21T04:59:25.891Z,101764.09
2018-05-21T05:01:53.984Z,101762.36
2018-05-21T05:04:22.093Z,101766.16
2018-05-21T05:06:50.181Z,101766.33
2018-05-21T05:09:18.271Z,101762.06
2018-05-21T05:11:46.411Z,101759.86
2018-05-21T05:14:14.498Z,101764.08
2018-05-21T05:16:42.650Z,101758.55
2018-05-21T05:19:10.737Z,101755.48
2018-05-21T05:21:38.853Z,101755.77
2018-05-21T05:24:06.941Z,101753.98
2018-05-21T05:26:35.256Z,101754.91
2018-05-21T05:29:03.391Z,101755.31
2018-05-21T05:31:31.483Z,101747.61
2018-05-21T05:33:59.569Z,101743.81
2018-05-21T05:36:27.685Z,101746.80
2018-05-21T05:38:55.787Z,101745.73
2018-05-21T05:41:23.913Z,101747.02
2018-05-21T05:43:52.001Z,101745.33
2018-05-21T05:46:20.103Z,101749.41
2018-05-21T05:48:48.284Z,101740.34
2018-05-21T05:51:16.650Z,101734.22
2018-05-21T06:06:46.461Z,101718.26
2018-05-21T06:09:14.571Z,101721.16
2018-05-21T06:11:42.659Z,101722.56
2018-05-21T06:14:10.761Z,101725.63
2018-05-21T06:16:38.857Z,101727.55
2018-05-21T06:19:09.055Z,101738.31
2018-05-21T06:21:37.169Z,101732.50
2018-05-21T06:24:05.282Z,101738.31
2018-05-21T06:26:33.380Z,101739.95
2018-05-21T06:29:01.486Z,101732.60
2018-05-21T06:31:29.612Z,101733.38
2018-05-21T06:33:57.832Z,101725.41
2018-05-21T06:36:26.438Z,101734.14
2018-05-21T06:38:54.893Z,101725.31
2018-05-21T06:41:22.999Z,101725.09
2018-05-21T06:43:51.099Z,101723.82
2018-05-21T06:46:24.133Z,101722.09
2018-05-21T06:48:52.241Z,101722.29
2018-05-21T06:51:20.337Z,101713.20
2018-05-21T06:53:48.773Z,101718.31
2018-05-21T06:56:16.859Z,101706.36
2018-05-21T06:58:44.962Z,101702.75
2018-05-21T07:01:13.970Z,101703.86
2018-05-21T07:03:42.087Z,101698.56
2018-05-21T07:06:10.282Z,101694.37
2018-05-21T07:08:38.385Z,101698.88
2018-05-21T07:11:06.535Z,101688.05
2018-05-21T07:13:34.625Z,101680.99
2018-05-21T07:16:02.761Z,101679.52
2018-05-21T07:18:30.928Z,101676.46
2018-05-21T07:20:59.121Z,101684.48
2018-05-21T07:23:27.199Z,101682.81
2018-05-21T07:25:55.303Z,101680.11
2018-05-21T07:28:23.407Z,101674.52
2018-05-21T07:30:51.521Z,101675.04
2018-05-21T07:33:19.618Z,101678.29
2018-05-21T07:35:47.735Z,101684.20
2018-05-21T07:51:15.938Z,101663.61
2018-05-21T07:53:43.972Z,101672.45
2018-05-21T07:56:12.773Z,101674.41
2018-05-21T07:58:40.903Z,101676.44
2018-05-21T08:01:09.004Z,101668.25
2018-05-21T08:03:37.100Z,101671.55
2018-05-21T08:15:50.249Z,101663.80
2018-05-21T08:18:18.320Z,101665.09
2018-05-21T08:20:46.417Z,101662.27
2018-05-21T08:23:14.639Z,101662.00
2018-05-21T08:25:43.070Z,101666.72
2018-05-21T08:28:11.147Z,101661.94
2018-05-21T08:30:39.264Z,101659.01
2018-05-21T08:33:07.583Z,101662.19
2018-05-21T08:35:35.696Z,101663.41
2018-05-21T08:38:03.850Z,101657.45
2018-05-21T08:40:31.986Z,101651.77
2018-05-21T08:43:00.108Z,101649.16
2018-05-21T08:45:28.227Z,101648.27
2018-05-21T08:47:56.325Z,101633.64
2018-05-21T08:50:24.416Z,101639.58
2018-05-21T08:52:52.533Z,101638.08
2018-05-21T08:55:20.631Z,101640.08
2018-05-21T08:57:48.725Z,101634.18
2018-05-21T09:00:16.823Z,101630.06
2018-05-21T09:02:49.915Z,101631.05
2018-05-21T09:05:18.026Z,101630.89
2018-05-21T09:07:46.121Z,101626.61
2018-05-21T09:10:14.225Z,101633.88
2018-05-21T09:12:42.331Z,101619.89
2018-05-21T09:28:10.433Z,101603.95
2018-05-21T09:30:38.606Z,101601.20
2018-05-21T09:33:06.734Z,101605.23
2018-05-21T09:35:34.832Z,101598.09
2018-05-21T09:38:03.860Z,101600.70
2018-05-21T09:53:32.069Z,101587.00
2018-05-21T09:56:00.547Z,101583.98
2018-05-21T09:58:28.633Z,101577.05
2018-05-21T10:00:56.797Z,101585.77
2018-05-21T10:03:25.518Z,101578.25
2018-05-21T10:05:53.584Z,101576.66
2018-05-21T10:08:21.692Z,101578.95
2018-05-21T10:10:50.612Z,101573.38
2018-05-21T10:13:18.707Z,101570.96
2018-05-21T10:15:46.807Z,101565.20
2018-05-21T10:18:14.902Z,101564.75
2018-05-21T10:20:42.996Z,101562.00
2018-05-21T10:23:11.428Z,101564.88
2018-05-21T10:25:40.444Z,101562.46
2018-05-21T10:28:08.881Z,101557.83
2018-05-21T10:30:37.013Z,101550.08
2018-05-21T10:33:05.153Z,101555.08
2018-05-21T10:35:33.300Z,101557.26
2018-05-21T10:38:01.497Z,101549.17
2018-05-21T10:40:29.668Z,101546.33
2018-05-21T10:42:57.746Z,101537.91
2018-05-21T10:45:25.887Z,101547.54
2018-05-21T10:47:54.063Z,101538.94
2018-05-21T10:50:22.133Z,101538.71
2018-05-21T10:52:50.231Z,101539.80
2018-05-21T10:55:19.294Z,101528.47
2018-05-21T10:57:53.008Z,101515.23
2018-05-21T11:00:21.128Z,101522.89
2018-05-21T11:02:54.185Z,101507.17
2018-05-21T11:05:22.288Z,101504.23
2018-05-21T11:07:50.394Z,101503.83
2018-05-21T11:10:18.501Z,101504.77
2018-05-21T11:12:46.593Z,101495.47
2018-05-21T11:15:14.741Z,101495.27
2018-05-21T11:17:42.817Z,101494.20
2018-05-21T11:20:10.928Z,101481.95
2018-05-21T11:22:39.041Z,101476.91
2018-05-21T11:25:07.174Z,101469.67
2018-05-21T11:27:35.309Z,101472.48
2018-05-21T11:30:03.413Z,101469.36
2018-05-21T11:32:31.548Z,101462.28
2018-05-21T11:34:59.661Z,101466.38
2018-05-21T11:37:27.761Z,101454.77
2018-05-21T11:39:55.877Z,101469.41
2018-05-21T11:42:24.981Z,101455.72
2018-05-21T11:44:53.077Z,101452.83
2018-05-21T11:47:21.182Z,101441.33
2018-05-21T12:02:55.022Z,101435.08
2018-05-21T12:05:23.097Z,101443.23
2018-05-21T12:07:51.201Z,101436.92
2018-05-21T12:10:19.660Z,101434.85
2018-05-21T12:12:47.787Z,101415.30
2018-05-21T12:15:16.323Z,101410.92
2018-05-21T12:17:44.421Z,101416.91
2018-05-21T12:20:12.892Z,101414.64
2018-05-21T12:22:40.988Z,101411.95
2018-05-21T12:38:09.235Z,101397.81
2018-05-21T12:40:37.274Z,101395.16
2018-05-21T12:56:05.390Z,101385.51
2018-05-21T12:58:33.485Z,101384.45
2018-05-21T13:01:01.591Z,101383.36
2018-05-21T13:03:29.740Z,101380.40
2018-05-21T13:05:58.143Z,101381.68
2018-05-21T13:08:26.233Z,101373.61
2018-05-21T13:10:54.329Z,101381.43
2018-05-21T13:13:22.447Z,101375.31
2018-05-21T13:15:50.526Z,101360.56
2018-05-21T13:18:18.697Z,101365.70
2018-05-21T13:20:46.777Z,101361.69
2018-05-21T13:23:15.470Z,101359.64
2018-05-21T13:25:43.601Z,101361.34
2018-05-21T13:28:11.973Z,101359.55
2018-05-21T13:30:40.067Z,101359.56
2018-05-21T13:33:08.996Z,101356.03
2018-05-21T13:35:37.091Z,101352.86
2018-05-21T13:38:05.200Z,101356.62
2018-05-21T13:40:33.302Z,101352.51
2018-05-21T13:43:01.401Z,101349.56
2018-05-21T13:45:35.148Z,101338.34
2018-05-21T13:48:03.270Z,101341.22
2018-05-21T13:50:31.353Z,101343.53
2018-05-21T13:52:59.545Z,101327.77
2018-05-21T13:55:27.617Z,101327.52
2018-05-21T13:57:56.697Z,101329.67
2018-05-21T14:00:24.805Z,101333.11
2018-05-21T14:02:52.924Z,101324.36
2018-05-21T14:05:21.149Z,101331.23
2018-05-21T14:07:49.241Z,101328.45
2018-05-21T14:10:17.371Z,101323.08
2018-05-21T14:12:45.457Z,101313.60
2018-05-21T14:15:13.632Z,101311.64
2018-05-21T14:17:41.697Z,101311.48
2018-05-21T14:20:10.139Z,101308.13
2018-05-21T14:22:38.261Z,101301.59
2018-05-21T14:25:06.492Z,101307.92
2018-05-21T14:27:35.425Z,101316.48
2018-05-21T14:30:03.567Z,101307.44
2018-05-21T14:32:31.661Z,101298.66
2018-05-21T14:34:59.763Z,101309.13
2018-05-21T14:37:27.862Z,101301.44
2018-05-21T14:39:55.962Z,101306.20
2018-05-21T14:42:24.057Z,101292.09
2018-05-21T14:44:52.193Z,101285.38
2018-05-21T14:47:20.289Z,101290.45
2018-05-21T14:49:48.445Z,101285.44
2018-05-21T14:52:16.601Z,101278.57
2018-05-21T14:54:45.300Z,101274.91
2018-05-21T14:57:13.453Z,101275.64
2018-05-21T14:59:41.844Z,101279.48
2018-05-21T15:02:09.978Z,101282.95
2018-05-21T15:04:38.939Z,101274.34
2018-05-21T15:07:07.077Z,101256.93
2018-05-21T15:22:35.214Z,101256.70
2018-05-21T15:25:03.290Z,101259.16
2018-05-21T15:27:31.389Z,101260.99
2018-05-21T15:29:59.491Z,101257.95
2018-05-21T15:32:27.597Z,101253.27
2018-05-21T15:34:56.019Z,101237.60
2018-05-21T15:37:24.089Z,101240.25
2018-05-21T15:39:52.190Z,101238.34
2018-05-21T15:42:20.305Z,101249.56
2018-05-21T15:44:53.837Z,101238.67
2018-05-21T15:47:21.987Z,101240.16
2018-05-21T15:49:50.084Z,101232.43
2018-05-21T15:52:18.917Z,101225.83
2018-05-21T16:07:47.021Z,101201.45
2018-05-21T16:10:15.113Z,101206.02
2018-05-21T16:12:43.222Z,101211.31
2018-05-21T16:15:16.274Z,101197.56
2018-05-21T16:17:44.419Z,101198.51
2018-05-21T16:20:12.478Z,101192.42
2018-05-21T16:22:40.571Z,101198.03
2018-05-21T16:25:08.693Z,101195.20
2018-05-21T16:27:36.805Z,101198.27
2018-05-21T16:30:04.979Z,101196.48
2018-05-21T16:32:33.029Z,101189.36
2018-05-21T16:35:01.153Z,101191.67
2018-05-21T16:37:30.117Z,101194.02
2018-05-21T16:39:58.225Z,101192.34
2018-05-21T16:42:27.202Z,101194.20
2018-05-21T16:44:55.297Z,101200.31
2018-05-21T16:47:23.382Z,101203.59
2018-05-21T16:49:51.502Z,101197.91
2018-05-21T16:52:25.487Z,101206.73
2018-05-21T16:54:53.577Z,101197.03
2018-05-21T16:57:21.661Z,101192.34
2018-05-21T16:59:49.749Z,101197.97
2018-05-21T17:02:17.853Z,101204.79
2018-05-21T17:04:46.657Z,101199.80
2018-05-21T17:07:14.791Z,101194.69
2018-05-21T17:09:42.887Z,101198.49
2018-05-21T17:12:11.625Z,101198.52
2018-05-21T17:14:39.725Z,101189.95
2018-05-21T17:17:07.840Z,101193.41
2018-05-21T17:19:35.921Z,101186.51
2018-05-21T17:22:04.013Z,101187.84
2018-05-21T17:24:32.142Z,101187.70
2018-05-21T17:27:00.235Z,101184.96
2018-05-21T17:29:28.362Z,101179.79
2018-05-21T17:31:56.429Z,101185.02
2018-05-21T17:34:26.682Z,101179.33
2018-05-21T17:36:54.795Z,101182.64
2018-05-21T17:39:27.841Z,101178.58
2018-05-21T17:41:56.745Z,101182.89
2018-05-21T17:44:25.741Z,101177.14
2018-05-21T17:46:54.509Z,101181.58
2018-05-21T17:49:22.609Z,101171.73
2018-05-21T17:51:50.860Z,101175.26
2018-05-21T17:54:18.924Z,101179.64
2018-05-21T17:56:47.002Z,101179.27
2018-05-21T17:59:15.781Z,101178.15
2018-05-21T18:01:44.619Z,101174.29
2018-05-21T18:04:12.747Z,101172.37
2018-05-21T18:06:40.885Z,101177.75
2018-05-21T18:09:08.977Z,101181.44
2018-05-21T18:11:37.073Z,101182.80
2018-05-21T18:14:05.858Z,101176.05
2018-05-21T18:16:33.957Z,101172.13
2018-05-21T18:19:02.101Z,101175.39
2018-05-21T18:21:30.397Z,101173.44
2018-05-21T18:23:58.300Z,101169.64
2018-05-21T18:26:26.405Z,101174.53
2018-05-21T18:28:54.748Z,101173.38
2018-05-21T18:31:23.976Z,101172.34
2018-05-21T18:33:52.064Z,101178.77
2018-05-21T18:36:20.513Z,101180.13
2018-05-21T18:38:48.609Z,101176.48
2018-05-21T18:54:16.722Z,101180.31
2018-05-21T18:56:45.118Z,101180.67
2018-05-21T18:59:13.195Z,101179.88
2018-05-21T19:01:41.283Z,101179.64
2018-05-21T19:04:09.414Z,101184.41
2018-05-21T19:06:37.492Z,101180.88
2018-05-21T19:09:06.498Z,101180.70
2018-05-21T19:11:34.618Z,101183.59
2018-05-21T19:14:02.751Z,101184.62
2018-05-21T19:16:31.137Z,101187.94
2018-05-21T19:19:00.124Z,101183.80
2018-05-21T19:21:28.467Z,101180.78
2018-05-21T19:24:02.170Z,101183.30
2018-05-21T19:26:30.264Z,101185.28
2018-05-21T19:28:59.077Z,101179.30
2018-05-21T19:31:27.189Z,101180.23
2018-05-21T19:33:55.285Z,101186.09
2018-05-21T19:36:23.637Z,101183.66
2018-05-21T19:38:51.808Z,101178.97
2018-05-21T19:41:19.947Z,101182.13
2018-05-21T19:43:48.084Z,101186.23
2018-05-21T19:46:16.239Z,101186.33
2018-05-21T19:48:44.333Z,101190.20
2018-05-21T19:51:12.481Z,101188.47
2018-05-21T19:53:40.632Z,101189.09
2018-05-21T19:56:08.739Z,101187.48
2018-05-21T19:58:36.824Z,101193.40
2018-05-21T20:01:04.954Z,101193.55
2018-05-21T20:03:33.037Z,101201.04
2018-05-21T20:06:02.152Z,101200.52
2018-05-21T20:08:30.276Z,101208.39
2018-05-21T20:10:58.396Z,101198.39
2018-05-21T20:13:26.498Z,101206.80
2018-05-21T20:15:54.597Z,101208.69
2018-05-21T20:18:32.504Z,101211.71
2018-05-21T20:21:00.611Z,101209.87
2018-05-21T20:23:28.712Z,101209.97
2018-05-21T20:25:56.836Z,101205.59
2018-05-21T20:28:25.467Z,101206.95
2018-05-21T20:30:54.164Z,101209.31
2018-05-21T20:33:22.268Z,101213.42
2018-05-21T20:35:50.396Z,101209.98
2018-05-21T20:38:19.389Z,101205.75
2018-05-21T20:40:48.039Z,101211.30
2018-05-21T20:43:16.165Z,101213.75
2018-05-21T20:45:44.299Z,101212.53
2018-05-21T20:48:12.449Z,101207.45
2018-05-21T20:50:40.556Z,101207.88
2018-05-21T20:53:08.624Z,101208.20
2018-05-21T20:55:36.767Z,101214.43
2018-05-21T20:58:04.841Z,101208.69
2018-05-21T21:00:32.943Z,101210.05
2018-05-21T21:03:06.556Z,101213.02
2018-05-21T21:05:34.815Z,101209.95
2018-05-21T21:08:02.907Z,101207.84
2018-05-21T21:10:31.034Z,101205.48
2018-05-21T21:12:59.134Z,101212.54
2018-05-21T21:15:27.269Z,101209.81
2018-05-21T21:17:55.396Z,101208.45
2018-05-21T21:20:23.502Z,101208.68
2018-05-21T21:22:51.627Z,101211.84
2018-05-21T21:25:19.732Z,101207.66
2018-05-21T21:27:48.720Z,101204.50
2018-05-21T21:30:17.477Z,101206.01
2018-05-21T21:32:45.622Z,101202.11
2018-05-21T21:35:18.642Z,101203.85
2018-05-21T21:37:47.554Z,101197.62
2018-05-21T21:40:15.662Z,101195.89
2018-05-21T21:42:43.752Z,101205.25
2018-05-21T21:45:11.888Z,101203.09
2018-05-21T21:47:39.985Z,101193.42
2018-05-21T21:50:08.896Z,101201.67
2018-05-21T21:52:37.004Z,101199.11
2018-05-21T21:55:10.045Z,101195.95
2018-05-21T21:57:38.183Z,101200.13
2018-05-21T22:00:06.301Z,101196.97
2018-05-21T22:02:34.404Z,101205.11
2018-05-21T22:05:02.517Z,101205.89
2018-05-21T22:07:30.618Z,101201.95
2018-05-21T22:09:58.699Z,101197.98
2018-05-21T22:12:26.814Z,101201.86
2018-05-21T22:14:54.923Z,101205.69
2018-05-21T22:17:23.756Z,101202.66
2018-05-21T22:19:51.874Z,101199.02
2018-05-21T22:22:20.315Z,101194.84
2018-05-21T22:24:48.940Z,101193.28
2018-05-21T22:27:17.032Z,101192.39
2018-05-21T22:29:45.466Z,101186.17
2018-05-21T22:32:13.583Z,101181.65
2018-05-21T22:34:42.360Z,101182.56
2018-05-21T22:37:10.448Z,101188.52
2018-05-21T22:39:38.592Z,101185.38
2018-05-21T22:42:06.698Z,101185.23
2018-05-21T22:44:41.768Z,101185.52
2018-05-21T22:47:09.876Z,101178.98
2018-05-21T22:49:37.972Z,101174.98
2018-05-21T22:52:06.817Z,101177.72
2018-05-21T22:54:40.492Z,101176.67
2018-05-21T22:57:08.610Z,101174.22
2018-05-21T22:59:43.068Z,101169.27
2018-05-21T23:02:11.856Z,101168.32
2018-05-21T23:04:40.248Z,101173.44
2018-05-21T23:07:08.624Z,101171.50
2018-05-21T23:09:36.719Z,101166.74
2018-05-21T23:12:04.848Z,101163.50
2018-05-21T23:24:18.549Z,101155.63
2018-05-21T23:26:46.869Z,101157.47
2018-05-21T23:29:14.965Z,101157.47
2018-05-21T23:31:43.072Z,101152.47
2018-05-21T23:34:11.184Z,101159.61
2018-05-21T23:36:45.718Z,101160.26
2018-05-21T23:39:14.141Z,101155.41
2018-05-21T23:41:42.231Z,101155.83
2018-05-21T23:44:11.349Z,101158.98
2018-05-21T23:46:39.460Z,101152.44
2018-05-21T23:49:07.564Z,101148.35
2018-05-21T23:51:35.869Z,101150.65
2018-05-21T23:54:03.936Z,101156.75
2018-05-21T23:56:32.903Z,101157.73
2018-05-21T23:59:00.972Z,101158.03
